Terminal Aerodrome Forecast
Issued by NWS Pueblo, CO

Home | Current Version | Previous Version | Text Only | Print | Product List | Glossary On
Versions: 1 2 3 4 5 6 7 8 9 10 11 12 13 14 15 16 17 18 19 20 21 22 23 24 25 26 27 28 29 30 31 32 33 34 35 36 37 38 39 40 41 42 43 44 45 46 47
000
FTUS45 KPUB 280723 AAA
TAFCOS
TAF AMD
KCOS 280723Z 2807/2906 03007KT P6SM FEW140 SCT200
     FM280830 12010KT P6SM SCT140 SCT200
     FM281100 04006KT P6SM SCT140 SCT200
      TEMPO 2811/2813 SCT005
     FM281400 15006KT P6SM SCT200
     FM281700 17012KT P6SM FEW100 SCT200
     FM282000 19014KT P6SM VCTS SCT090CB BKN140
     FM290100 35010KT P6SM SCT120 SCT200=

USA.gov is the U.S. government's official web portal to all federal, state and local government web resources and services.